createdAt,value
2023-01-21T00:02:09.232Z,4.03
2023-01-21T00:04:38.157Z,4.04
2023-01-21T00:07:06.821Z,4.03
2023-01-21T00:09:36.683Z,4.06
2023-01-21T00:12:05.556Z,4.07
2023-01-21T00:14:34.001Z,4.08
2023-01-21T00:17:02.397Z,4.10
2023-01-21T00:19:30.791Z,4.12
2023-01-21T00:21:59.238Z,4.12
2023-01-21T00:24:27.740Z,4.12
2023-01-21T00:26:57.544Z,4.11
2023-01-21T00:29:26.516Z,4.10
2023-01-21T00:31:54.932Z,4.10
2023-01-21T00:34:23.287Z,4.10
2023-01-21T00:36:51.659Z,4.09
2023-01-21T00:39:20.126Z,4.09
2023-01-21T00:41:48.522Z,4.08
2023-01-21T00:44:19.303Z,4.07
2023-01-21T00:46:47.644Z,4.07
2023-01-21T00:49:16.057Z,4.06
2023-01-21T00:51:44.455Z,4.07
2023-01-21T00:54:12.865Z,4.04
2023-01-21T00:56:41.192Z,4.04
2023-01-21T00:59:09.897Z,4.04
2023-01-21T01:01:39.740Z,4.03
2023-01-21T01:04:08.252Z,4.03
2023-01-21T01:06:36.607Z,4.01
2023-01-21T01:09:05.459Z,4.03
2023-01-21T01:11:34.243Z,4.03
2023-01-21T01:14:02.544Z,4.03
2023-01-21T01:16:30.907Z,4.02
2023-01-21T01:19:01.210Z,4.01
2023-01-21T01:21:30.277Z,4.02
2023-01-21T01:24:00.742Z,4.00
2023-01-21T01:26:29.118Z,4.00
2023-01-21T01:28:57.660Z,3.93
2023-01-21T01:31:25.973Z,3.92
2023-01-21T01:33:54.310Z,3.86
2023-01-21T01:36:24.900Z,3.81
2023-01-21T01:38:54.312Z,3.81
2023-01-21T01:41:25.475Z,3.78
2023-01-21T01:43:58.828Z,3.76
2023-01-21T01:46:30.150Z,3.74
2023-01-21T01:49:10.355Z,3.72
2023-01-21T01:51:47.175Z,3.68
2023-01-21T01:54:20.464Z,3.67
2023-01-21T01:56:53.415Z,3.64
2023-01-21T01:59:22.265Z,3.62
2023-01-21T02:01:50.846Z,3.62
2023-01-21T02:04:24.763Z,3.57
2023-01-21T02:06:56.117Z,3.51
2023-01-21T02:09:29.703Z,3.52
2023-01-21T02:11:59.313Z,3.50
2023-01-21T02:14:27.951Z,3.50
2023-01-21T02:17:18.041Z,3.43
2023-01-21T02:20:38.004Z,3.41
2023-01-21T02:23:18.405Z,3.38
2023-01-21T02:26:38.807Z,3.36
2023-01-21T02:29:45.030Z,3.32
2023-01-21T02:32:39.669Z,3.30
2023-01-21T02:35:15.375Z,3.29
2023-01-21T02:37:51.082Z,3.32
2023-01-21T02:40:27.190Z,3.32
2023-01-21T02:43:06.616Z,3.31
2023-01-21T02:45:40.285Z,3.32
2023-01-21T02:48:15.980Z,3.26
2023-01-21T02:50:50.670Z,3.26
2023-01-21T02:53:25.940Z,3.24
2023-01-21T02:55:54.735Z,3.25
2023-01-21T02:58:29.000Z,3.23
2023-01-21T03:01:10.816Z,3.21
2023-01-21T03:04:02.815Z,3.19
2023-01-21T03:06:43.599Z,3.17
2023-01-21T03:09:23.062Z,3.16
2023-01-21T03:12:10.146Z,3.09
2023-01-21T03:15:02.109Z,3.11
2023-01-21T03:17:41.648Z,3.09
2023-01-21T03:20:14.623Z,3.04
2023-01-21T03:22:45.682Z,3.04
2023-01-21T03:25:16.050Z,3.06
2023-01-21T03:27:47.664Z,3.07
2023-01-21T03:30:19.717Z,3.07
2023-01-21T03:32:52.285Z,3.03
2023-01-21T03:35:25.761Z,3.02
2023-01-21T03:37:59.716Z,2.98
2023-01-21T03:40:31.997Z,3.00
2023-01-21T03:43:00.506Z,2.99
2023-01-21T03:45:36.844Z,2.97
2023-01-21T03:48:17.825Z,2.97
2023-01-21T03:50:51.122Z,2.95
2023-01-21T03:53:21.495Z,2.93
2023-01-21T03:55:51.767Z,2.90
2023-01-21T03:58:20.052Z,2.87
2023-01-21T04:00:49.268Z,2.88
2023-01-21T04:03:17.590Z,2.87
2023-01-21T04:05:45.897Z,2.87
2023-01-21T04:08:14.157Z,2.85
2023-01-21T04:10:44.164Z,2.87
2023-01-21T04:13:12.414Z,2.87
2023-01-21T04:15:40.765Z,2.85
2023-01-21T04:18:09.066Z,2.85
2023-01-21T04:20:37.359Z,2.85
2023-01-21T04:23:05.642Z,2.80
2023-01-21T04:25:33.897Z,2.79
2023-01-21T04:28:03.577Z,2.76
2023-01-21T04:30:31.960Z,2.76
2023-01-21T04:33:00.334Z,2.71
2023-01-21T04:35:28.666Z,2.72
2023-01-21T04:37:57.539Z,2.71
2023-01-21T04:40:25.754Z,2.68
2023-01-21T04:42:54.037Z,2.70
2023-01-21T04:45:24.170Z,2.67
2023-01-21T04:47:52.466Z,2.67
2023-01-21T04:50:20.971Z,2.66
2023-01-21T04:52:49.291Z,2.63
2023-01-21T04:55:17.811Z,2.62
2023-01-21T04:57:46.166Z,2.64
2023-01-21T05:00:16.197Z,2.63
2023-01-21T05:02:46.058Z,2.59
2023-01-21T05:05:14.380Z,2.57
2023-01-21T05:07:42.727Z,2.55
2023-01-21T05:10:16.947Z,2.53
2023-01-21T05:12:45.414Z,2.54
2023-01-21T05:15:13.847Z,2.55
2023-01-21T05:17:42.155Z,2.54
2023-01-21T05:20:13.467Z,2.53
2023-01-21T05:22:41.835Z,2.50
2023-01-21T05:25:10.807Z,2.52
2023-01-21T05:27:39.080Z,2.51
2023-01-21T05:30:09.169Z,2.50
2023-01-21T05:32:37.706Z,2.49
2023-01-21T05:35:06.455Z,2.49
2023-01-21T05:37:36.211Z,2.45
2023-01-21T05:40:05.517Z,2.45
2023-01-21T05:42:33.808Z,2.45
2023-01-21T05:45:02.421Z,2.40
2023-01-21T05:47:30.618Z,2.40
2023-01-21T05:49:58.863Z,2.38
2023-01-21T05:52:27.077Z,2.38
2023-01-21T05:55:02.355Z,2.37
2023-01-21T05:57:31.342Z,2.33
2023-01-21T05:59:59.938Z,2.32
2023-01-21T06:02:28.436Z,2.30
2023-01-21T06:04:56.700Z,2.27
2023-01-21T06:07:24.955Z,2.25
2023-01-21T06:09:53.190Z,2.24
2023-01-21T06:12:24.745Z,2.20
2023-01-21T06:14:53.147Z,2.21
2023-01-21T06:17:21.579Z,2.20
2023-01-21T06:19:49.802Z,2.15
2023-01-21T06:22:18.956Z,2.16
2023-01-21T06:24:47.274Z,2.16
2023-01-21T06:27:15.549Z,2.17
2023-01-21T06:29:45.217Z,2.20
2023-01-21T06:32:13.463Z,2.18
2023-01-21T06:34:41.707Z,2.17
2023-01-21T06:37:09.951Z,2.16
2023-01-21T06:39:38.842Z,2.19
2023-01-21T06:42:07.150Z,2.21
2023-01-21T06:44:35.396Z,2.17
2023-01-21T06:47:05.230Z,2.19
2023-01-21T06:49:33.523Z,2.22
2023-01-21T06:52:01.925Z,2.22
2023-01-21T06:54:30.583Z,2.24
2023-01-21T06:57:00.056Z,2.24
2023-01-21T06:59:28.374Z,2.28
2023-01-21T07:01:58.977Z,2.28
2023-01-21T07:04:29.130Z,2.26
2023-01-21T07:06:57.502Z,2.31
2023-01-21T07:09:26.302Z,2.32
2023-01-21T07:11:55.555Z,2.32
2023-01-21T07:14:23.855Z,2.36
2023-01-21T07:16:52.103Z,2.38
2023-01-21T07:19:20.361Z,2.40
2023-01-21T07:21:50.364Z,2.40
2023-01-21T07:24:18.625Z,2.39
2023-01-21T07:26:46.908Z,2.41
2023-01-21T07:29:15.395Z,2.44
2023-01-21T07:31:43.727Z,2.45
2023-01-21T07:34:12.045Z,2.44
2023-01-21T07:36:40.281Z,2.45
2023-01-21T07:39:09.964Z,2.46
2023-01-21T07:41:38.210Z,2.51
2023-01-21T07:44:06.950Z,2.49
2023-01-21T07:46:36.126Z,2.55
2023-01-21T07:49:04.614Z,2.56
2023-01-21T07:51:32.896Z,2.59
2023-01-21T07:54:01.192Z,2.57
2023-01-21T07:56:30.797Z,2.62
2023-01-21T07:58:59.094Z,2.63
2023-01-21T08:01:30.995Z,2.65
2023-01-21T08:03:59.550Z,2.65
2023-01-21T08:06:28.186Z,2.61
2023-01-21T08:08:56.427Z,2.68
2023-01-21T08:11:24.699Z,2.69
2023-01-21T08:13:54.320Z,2.72
2023-01-21T08:16:22.649Z,2.75
2023-01-21T08:18:51.165Z,2.77
2023-01-21T08:21:20.893Z,2.82
2023-01-21T08:23:49.280Z,2.83
2023-01-21T08:26:17.545Z,2.84
2023-01-21T08:28:45.756Z,2.84
2023-01-21T08:31:15.815Z,2.89
2023-01-21T08:33:44.082Z,2.90
2023-01-21T08:36:12.331Z,2.90
2023-01-21T08:38:41.134Z,2.92
2023-01-21T08:41:10.604Z,2.95
2023-01-21T08:43:40.584Z,2.98
2023-01-21T08:46:08.844Z,2.99
2023-01-21T08:48:39.119Z,3.01
2023-01-21T08:51:07.858Z,3.00
2023-01-21T08:53:36.118Z,3.04
2023-01-21T08:56:06.023Z,3.05
2023-01-21T08:58:34.548Z,3.07
2023-01-21T09:01:08.899Z,3.06
2023-01-21T09:03:38.804Z,3.10
2023-01-21T09:06:08.461Z,3.07
2023-01-21T09:08:37.366Z,3.13
2023-01-21T09:11:07.067Z,3.17
2023-01-21T09:13:38.648Z,3.20
2023-01-21T09:16:10.425Z,3.22
2023-01-21T09:18:40.239Z,3.27
2023-01-21T09:21:10.495Z,3.27
2023-01-21T09:23:40.156Z,3.31
2023-01-21T09:26:14.274Z,3.34
2023-01-21T09:28:43.799Z,3.35
2023-01-21T09:31:15.441Z,3.36
2023-01-21T09:33:47.889Z,3.35
2023-01-21T09:36:19.110Z,3.40
2023-01-21T09:38:49.084Z,3.38
2023-01-21T09:41:26.936Z,3.39
2023-01-21T09:44:06.542Z,3.38
2023-01-21T09:46:42.985Z,3.34
2023-01-21T09:49:19.895Z,3.35
2023-01-21T09:51:54.459Z,3.39
2023-01-21T09:54:30.310Z,3.36
2023-01-21T09:57:33.267Z,3.37
2023-01-21T10:00:27.222Z,3.42
2023-01-21T10:03:04.514Z,3.45
2023-01-21T10:06:06.027Z,3.46
2023-01-21T10:08:56.985Z,3.47
2023-01-21T10:11:47.775Z,3.49
2023-01-21T10:15:13.007Z,3.48
2023-01-21T10:17:53.492Z,3.46
2023-01-21T10:20:26.030Z,3.48
2023-01-21T10:23:01.907Z,3.50
2023-01-21T10:25:34.087Z,3.55
2023-01-21T10:28:10.480Z,3.58
2023-01-21T10:30:44.746Z,3.59
2023-01-21T10:33:19.714Z,3.59
2023-01-21T10:36:37.640Z,3.61
2023-01-21T10:39:18.795Z,3.62
2023-01-21T10:42:06.272Z,3.60
2023-01-21T10:44:46.255Z,3.64
2023-01-21T10:47:24.180Z,3.67
2023-01-21T10:50:01.535Z,3.71
2023-01-21T10:52:38.595Z,3.68
2023-01-21T10:55:27.445Z,3.72
2023-01-21T10:58:01.470Z,3.74
2023-01-21T11:00:34.200Z,3.77
2023-01-21T11:03:09.690Z,3.74
2023-01-21T11:05:40.412Z,3.78
2023-01-21T11:08:10.105Z,3.84
2023-01-21T11:10:41.303Z,3.85
2023-01-21T11:13:13.245Z,3.87
2023-01-21T11:15:49.083Z,3.91
2023-01-21T11:18:31.116Z,3.92
2023-01-21T11:21:01.455Z,3.92
2023-01-21T11:23:32.314Z,3.93
2023-01-21T11:26:09.415Z,3.95
2023-01-21T11:28:38.659Z,4.01
2023-01-21T11:31:13.120Z,4.03
2023-01-21T11:33:43.274Z,4.07
2023-01-21T11:36:15.485Z,4.06
2023-01-21T11:38:45.053Z,4.00
2023-01-21T11:41:22.577Z,4.10
2023-01-21T11:43:53.337Z,4.10
2023-01-21T11:46:35.808Z,4.11
2023-01-21T11:49:31.368Z,4.12
2023-01-21T11:52:19.835Z,4.14
2023-01-21T11:54:49.038Z,4.15
2023-01-21T11:57:31.727Z,4.16
2023-01-21T12:00:10.173Z,4.19
2023-01-21T12:02:43.518Z,4.18
2023-01-21T12:05:18.201Z,4.19
2023-01-21T12:07:52.415Z,4.18
2023-01-21T12:10:29.198Z,4.20
2023-01-21T12:13:20.241Z,4.19
2023-01-21T12:16:11.952Z,4.15
2023-01-21T12:19:04.079Z,4.21
2023-01-21T12:21:53.736Z,4.16
2023-01-21T12:24:41.468Z,4.17
2023-01-21T12:27:18.823Z,4.18
2023-01-21T12:30:05.751Z,4.22
2023-01-21T12:32:38.808Z,4.24
2023-01-21T12:35:13.605Z,4.24
2023-01-21T12:37:48.450Z,4.25
2023-01-21T12:40:21.673Z,4.28
2023-01-21T12:42:55.129Z,4.28
2023-01-21T12:45:31.808Z,4.22
2023-01-21T12:48:04.674Z,4.27
2023-01-21T12:50:39.691Z,4.29
2023-01-21T12:53:22.148Z,4.29
2023-01-21T12:56:22.274Z,4.30
2023-01-21T12:58:56.407Z,4.31
2023-01-21T13:01:44.306Z,4.30
2023-01-21T13:04:39.334Z,4.29
2023-01-21T13:07:18.527Z,4.32
2023-01-21T13:09:55.673Z,4.34
2023-01-21T13:12:26.763Z,4.34
2023-01-21T13:15:02.104Z,4.35
2023-01-21T13:17:36.088Z,4.33
2023-01-21T13:20:19.533Z,4.34
2023-01-21T13:23:05.293Z,4.34
2023-01-21T13:25:43.757Z,4.23
2023-01-21T13:28:20.157Z,4.29
2023-01-21T13:30:56.369Z,4.24
2023-01-21T13:33:41.828Z,4.27
2023-01-21T13:36:30.764Z,4.26
2023-01-21T13:39:06.332Z,4.28
2023-01-21T13:41:53.582Z,4.25
2023-01-21T13:45:00.343Z,4.16
2023-01-21T13:47:55.027Z,4.13
2023-01-21T13:50:37.533Z,4.13
2023-01-21T13:53:36.373Z,4.07
2023-01-21T13:56:23.091Z,4.04
2023-01-21T13:58:57.820Z,4.05
2023-01-21T14:01:31.096Z,4.00
2023-01-21T14:04:07.263Z,3.96
2023-01-21T14:06:43.355Z,3.93
2023-01-21T14:09:20.688Z,3.95
2023-01-21T14:11:56.310Z,3.93
2023-01-21T14:15:02.404Z,3.86
2023-01-21T14:18:13.191Z,3.85
2023-01-21T14:21:21.807Z,3.91
2023-01-21T14:24:14.735Z,3.92
2023-01-21T14:27:14.991Z,3.93
2023-01-21T14:29:48.069Z,3.90
2023-01-21T14:32:22.989Z,3.94
2023-01-21T14:35:07.508Z,3.99
2023-01-21T14:37:43.945Z,4.03
2023-01-21T14:40:20.163Z,4.01
2023-01-21T14:42:50.315Z,4.04
2023-01-21T14:45:22.244Z,4.07
2023-01-21T14:47:53.208Z,4.05
2023-01-21T14:50:54.064Z,4.07
2023-01-21T14:53:25.795Z,4.06
2023-01-21T14:56:22.713Z,4.05
2023-01-21T14:58:54.366Z,4.05
2023-01-21T15:01:36.912Z,4.06
2023-01-21T15:04:16.535Z,4.07
2023-01-21T15:06:45.065Z,4.04
2023-01-21T15:09:23.352Z,4.05
2023-01-21T15:12:00.772Z,4.05
2023-01-21T15:14:32.070Z,4.07
2023-01-21T15:17:03.657Z,4.07
2023-01-21T15:19:34.174Z,4.06
2023-01-21T15:22:46.666Z,4.04
2023-01-21T15:25:20.863Z,4.03
2023-01-21T15:28:44.241Z,4.02
2023-01-21T15:31:41.571Z,3.99
2023-01-21T15:34:16.400Z,3.98
2023-01-21T15:36:48.485Z,3.97
2023-01-21T15:39:19.543Z,3.98
2023-01-21T15:42:06.675Z,3.96
2023-01-21T15:44:59.672Z,3.95
2023-01-21T15:47:55.423Z,3.94
2023-01-21T15:50:29.183Z,3.93
2023-01-21T15:53:22.592Z,3.91
2023-01-21T15:56:17.392Z,3.91
2023-01-21T15:58:58.185Z,3.87
2023-01-21T16:01:35.407Z,3.83
2023-01-21T16:04:26.652Z,3.83
2023-01-21T16:07:10.910Z,3.81
2023-01-21T16:09:55.698Z,3.76
2023-01-21T16:12:33.232Z,3.79
2023-01-21T16:15:12.116Z,3.80
2023-01-21T16:17:58.955Z,3.77
2023-01-21T16:20:27.493Z,3.78
2023-01-21T16:22:59.479Z,3.80
2023-01-21T16:25:28.280Z,3.80
2023-01-21T16:27:57.052Z,3.82
2023-01-21T16:30:30.820Z,3.81
2023-01-21T16:33:14.983Z,3.82
2023-01-21T16:35:48.615Z,3.83
2023-01-21T16:38:19.573Z,3.83
2023-01-21T16:40:50.511Z,3.83
2023-01-21T16:43:25.551Z,3.84
2023-01-21T16:45:56.772Z,3.80
2023-01-21T16:48:29.893Z,3.80
2023-01-21T16:50:58.513Z,3.84
2023-01-21T16:53:27.920Z,3.84
2023-01-21T16:55:58.708Z,3.85
2023-01-21T16:58:30.333Z,3.84
2023-01-21T17:01:11.820Z,3.87
2023-01-21T17:03:41.569Z,3.85
2023-01-21T17:06:16.054Z,3.85
2023-01-21T17:08:48.459Z,3.84
2023-01-21T17:11:16.777Z,3.86
2023-01-21T17:13:45.974Z,3.86
2023-01-21T17:16:24.917Z,3.86
2023-01-21T17:18:58.623Z,3.87
2023-01-21T17:21:34.139Z,3.85
2023-01-21T17:24:06.241Z,3.86
2023-01-21T17:26:38.946Z,3.84
2023-01-21T17:29:18.105Z,3.85
2023-01-21T17:31:47.089Z,3.86
2023-01-21T17:34:25.162Z,3.84
2023-01-21T17:36:55.473Z,3.83
2023-01-21T17:40:00.693Z,3.83
2023-01-21T17:42:40.641Z,3.78
2023-01-21T17:45:20.826Z,3.78
2023-01-21T17:48:08.688Z,3.81
2023-01-21T17:50:47.233Z,3.81
2023-01-21T17:53:23.344Z,3.81
2023-01-21T17:56:01.840Z,3.81
2023-01-21T17:58:55.815Z,3.82
2023-01-21T18:01:24.185Z,3.80
2023-01-21T18:03:52.540Z,3.81
2023-01-21T18:06:26.891Z,3.83
2023-01-21T18:08:56.395Z,3.83
2023-01-21T18:11:24.807Z,3.83
2023-01-21T18:13:53.321Z,3.87
2023-01-21T18:16:21.708Z,3.85
2023-01-21T18:18:50.601Z,3.86
2023-01-21T18:21:22.382Z,3.87
2023-01-21T18:23:51.372Z,3.88
2023-01-21T18:26:28.556Z,3.87
2023-01-21T18:28:56.934Z,3.88
2023-01-21T18:31:25.348Z,3.86
2023-01-21T18:33:53.762Z,3.87
2023-01-21T18:36:23.430Z,3.84
2023-01-21T18:38:51.742Z,3.87
2023-01-21T18:41:20.047Z,3.87
2023-01-21T18:43:48.340Z,3.89
2023-01-21T18:46:19.625Z,3.87
2023-01-21T18:48:48.034Z,3.88
2023-01-21T18:51:16.424Z,3.86
2023-01-21T18:53:46.243Z,3.90
2023-01-21T18:56:15.637Z,3.91
2023-01-21T18:58:44.390Z,3.91
2023-01-21T19:01:23.104Z,3.92
2023-01-21T19:03:55.034Z,3.91
2023-01-21T19:06:25.309Z,3.90
2023-01-21T19:08:55.458Z,3.91
2023-01-21T19:11:23.905Z,3.91
2023-01-21T19:13:52.512Z,3.92
2023-01-21T19:16:22.242Z,3.93
2023-01-21T19:18:50.687Z,3.94
2023-01-21T19:21:19.022Z,3.94
2023-01-21T19:23:47.518Z,3.96
2023-01-21T19:26:18.057Z,3.96
2023-01-21T19:28:46.448Z,3.97
2023-01-21T19:31:14.744Z,3.97
2023-01-21T19:33:45.614Z,3.98
2023-01-21T19:36:16.466Z,4.00
2023-01-21T19:38:51.353Z,4.00
2023-01-21T19:41:21.164Z,4.02
2023-01-21T19:43:49.502Z,4.02
2023-01-21T19:46:18.640Z,4.03
2023-01-21T19:48:50.077Z,4.03
2023-01-21T19:51:18.496Z,4.03
2023-01-21T19:53:46.946Z,4.03
2023-01-21T19:56:19.945Z,4.01
2023-01-21T19:58:49.717Z,3.98
2023-01-21T20:01:18.171Z,3.95
2023-01-21T20:03:59.259Z,3.93
2023-01-21T20:06:29.302Z,3.91
2023-01-21T20:09:00.517Z,3.90
2023-01-21T20:11:28.959Z,3.87
2023-01-21T20:13:58.709Z,3.86
2023-01-21T20:16:27.368Z,3.87
2023-01-21T20:18:56.449Z,3.86
2023-01-21T20:21:25.010Z,3.86
2023-01-21T20:23:53.338Z,3.86
2023-01-21T20:26:26.226Z,3.85
2023-01-21T20:28:54.744Z,3.85
2023-01-21T20:31:24.677Z,3.85
2023-01-21T20:33:53.129Z,3.86
2023-01-21T20:36:24.422Z,3.84
2023-01-21T20:38:54.110Z,3.86
2023-01-21T20:41:22.718Z,3.89
2023-01-21T20:43:51.254Z,3.91
2023-01-21T20:46:24.846Z,3.91
2023-01-21T20:48:53.330Z,3.90
2023-01-21T20:51:22.233Z,3.91
2023-01-21T20:53:50.677Z,3.90
2023-01-21T20:56:26.338Z,3.90
2023-01-21T20:58:55.199Z,3.87
2023-01-21T21:01:27.007Z,3.89
2023-01-21T21:03:55.425Z,3.90
2023-01-21T21:06:27.732Z,3.91
2023-01-21T21:08:56.379Z,3.89
2023-01-21T21:11:24.803Z,3.88
2023-01-21T21:13:53.224Z,3.89
2023-01-21T21:16:26.330Z,3.86
2023-01-21T21:18:56.203Z,3.85
2023-01-21T21:21:25.052Z,3.83
2023-01-21T21:23:53.756Z,3.83
2023-01-21T21:26:24.741Z,3.83
2023-01-21T21:28:55.327Z,3.81
2023-01-21T21:31:26.988Z,3.79
2023-01-21T21:33:55.497Z,3.76
2023-01-21T21:36:25.040Z,3.74
2023-01-21T21:38:55.745Z,3.71
2023-01-21T21:41:44.129Z,3.71
2023-01-21T21:44:13.000Z,3.69
2023-01-21T21:47:00.001Z,3.66
2023-01-21T21:49:29.011Z,3.63
2023-01-21T21:51:59.760Z,3.61
2023-01-21T21:54:28.257Z,3.61
2023-01-21T21:56:57.175Z,3.62
2023-01-21T21:59:25.510Z,3.59
2023-01-21T22:01:55.398Z,3.59
2023-01-21T22:04:23.791Z,3.61
2023-01-21T22:06:52.103Z,3.60
2023-01-21T22:09:20.727Z,3.61
2023-01-21T22:11:49.142Z,3.60
2023-01-21T22:14:18.071Z,3.61
2023-01-21T22:16:46.677Z,3.60
2023-01-21T22:19:16.660Z,3.61
2023-01-21T22:21:45.071Z,3.63
2023-01-21T22:24:13.452Z,3.64
2023-01-21T22:26:41.797Z,3.63
2023-01-21T22:29:10.182Z,3.63
2023-01-21T22:31:38.632Z,3.64
2023-01-21T22:34:07.174Z,3.65
2023-01-21T22:36:36.873Z,3.65
2023-01-21T22:39:05.364Z,3.67
2023-01-21T22:41:34.707Z,3.68
2023-01-21T22:44:03.079Z,3.67
2023-01-21T22:46:31.537Z,3.69
2023-01-21T22:48:59.944Z,3.69
2023-01-21T22:51:28.832Z,3.68
2023-01-21T22:54:00.192Z,3.69
2023-01-21T22:56:45.316Z,3.72
2023-01-21T22:59:16.940Z,3.71
2023-01-21T23:01:45.238Z,3.72
2023-01-21T23:04:14.844Z,3.76
2023-01-21T23:06:44.674Z,3.78
2023-01-21T23:09:16.571Z,3.78
2023-01-21T23:11:45.450Z,3.80
2023-01-21T23:14:13.880Z,3.80
2023-01-21T23:16:42.301Z,3.82
2023-01-21T23:19:10.620Z,3.82
2023-01-21T23:21:39.004Z,3.84
2023-01-21T23:24:08.714Z,3.84
2023-01-21T23:26:38.639Z,3.85
2023-01-21T23:29:07.024Z,3.85
2023-01-21T23:31:35.513Z,3.86
2023-01-21T23:34:04.372Z,3.85
2023-01-21T23:36:32.778Z,3.86
2023-01-21T23:39:01.107Z,3.87
2023-01-21T23:41:29.473Z,3.88
2023-01-21T23:44:01.650Z,3.89
2023-01-21T23:46:30.197Z,3.89
2023-01-21T23:48:58.582Z,3.90
2023-01-21T23:51:26.886Z,3.89
2023-01-21T23:53:55.149Z,3.89
2023-01-21T23:56:25.980Z,3.87
2023-01-21T23:58:54.781Z,3.86
